sensor_id;sensor_type;location;lat;lon;timestamp;pressure;altitude;pressure_sealevel;temperature;humidity
17764;BME280;22245;52.832;13.816;2022-12-10T00:02:03;100777.59;;;-0.45;80.96
17764;BME280;22245;52.832;13.816;2022-12-10T00:05:25;100766.97;;;-0.40;80.33
17764;BME280;22245;52.832;13.816;2022-12-10T00:08:47;100764.41;;;-0.41;81.13
17764;BME280;22245;52.832;13.816;2022-12-10T00:12:11;100765.19;;;-0.39;80.34
17764;BME280;22245;52.832;13.816;2022-12-10T00:15:34;100769.50;;;-0.38;80.74
17764;BME280;22245;52.832;13.816;2022-12-10T00:18:56;100769.47;;;-0.37;80.88
17764;BME280;22245;52.832;13.816;2022-12-10T00:22:18;100761.56;;;-0.35;81.13
17764;BME280;22245;52.832;13.816;2022-12-10T00:25:40;100759.00;;;-0.37;80.54
17764;BME280;22245;52.832;13.816;2022-12-10T00:29:06;100758.88;;;-0.34;81.52
17764;BME280;22245;52.832;13.816;2022-12-10T00:32:28;100766.56;;;-0.29;80.85
17764;BME280;22245;52.832;13.816;2022-12-10T00:35:50;100761.25;;;-0.27;80.34
17764;BME280;22245;52.832;13.816;2022-12-10T00:39:14;100763.72;;;-0.24;80.75
17764;BME280;22245;52.832;13.816;2022-12-10T00:42:37;100763.84;;;-0.27;79.78
17764;BME280;22245;52.832;13.816;2022-12-10T00:46:00;100763.97;;;-0.31;80.88
17764;BME280;22245;52.832;13.816;2022-12-10T00:49:23;100767.50;;;-0.32;80.54
17764;BME280;22245;52.832;13.816;2022-12-10T00:52:45;100769.03;;;-0.26;79.92
17764;BME280;22245;52.832;13.816;2022-12-10T00:56:07;100776.81;;;-0.24;80.48
17764;BME280;22245;52.832;13.816;2022-12-10T00:59:29;100782.00;;;-0.23;80.63
17764;BME280;22245;52.832;13.816;2022-12-10T01:02:53;100782.94;;;-0.24;80.24
17764;BME280;22245;52.832;13.816;2022-12-10T01:06:19;100780.19;;;-0.21;79.89
17764;BME280;22245;52.832;13.816;2022-12-10T01:09:41;100787.91;;;-0.18;79.54
17764;BME280;22245;52.832;13.816;2022-12-10T01:13:03;100792.22;;;-0.17;80.13
17764;BME280;22245;52.832;13.816;2022-12-10T01:16:26;100788.69;;;-0.16;80.36
17764;BME280;22245;52.832;13.816;2022-12-10T01:19:49;100788.66;;;-0.14;79.51
17764;BME280;22245;52.832;13.816;2022-12-10T01:23:11;100796.44;;;-0.12;79.59
17764;BME280;22245;52.832;13.816;2022-12-10T01:26:34;100788.56;;;-0.12;80.57
17764;BME280;22245;52.832;13.816;2022-12-10T01:29:55;100791.41;;;-0.17;80.15
17764;BME280;22245;52.832;13.816;2022-12-10T01:33:17;100794.06;;;-0.19;80.41
17764;BME280;22245;52.832;13.816;2022-12-10T01:36:42;100790.53;;;-0.18;80.28
17764;BME280;22245;52.832;13.816;2022-12-10T01:40:05;100792.22;;;-0.17;80.00
17764;BME280;22245;52.832;13.816;2022-12-10T01:43:47;100791.44;;;-0.19;79.92
17764;BME280;22245;52.832;13.816;2022-12-10T01:47:10;100782.84;;;-0.22;81.00
17764;BME280;22245;52.832;13.816;2022-12-10T01:50:31;100782.94;;;-0.24;80.12
17764;BME280;22245;52.832;13.816;2022-12-10T01:53:55;100782.00;;;-0.23;80.65
17764;BME280;22245;52.832;13.816;2022-12-10T01:57:19;100783.88;;;-0.26;81.13
17764;BME280;22245;52.832;13.816;2022-12-10T02:00:49;100783.88;;;-0.26;80.13
17764;BME280;22245;52.832;13.816;2022-12-10T02:04:24;100780.34;;;-0.25;80.09
17764;BME280;22245;52.832;13.816;2022-12-10T02:07:57;100784.91;;;-0.31;80.11
17764;BME280;22245;52.832;13.816;2022-12-10T02:11:28;100784.22;;;-0.34;81.37
17764;BME280;22245;52.832;13.816;2022-12-10T02:14:55;100785.91;;;-0.33;80.57
17764;BME280;22245;52.832;13.816;2022-12-10T02:18:20;100785.91;;;-0.33;81.37
17764;BME280;22245;52.832;13.816;2022-12-10T02:21:46;100779.69;;;-0.31;80.47
17764;BME280;22245;52.832;13.816;2022-12-10T02:25:11;100783.16;;;-0.30;80.78
17764;BME280;22245;52.832;13.816;2022-12-10T02:28:39;100777.16;;;-0.32;80.76
17764;BME280;22245;52.832;13.816;2022-12-10T02:32:12;100775.56;;;-0.36;81.53
17764;BME280;22245;52.832;13.816;2022-12-10T02:35:35;100780.34;;;-0.48;81.09
17764;BME280;22245;52.832;13.816;2022-12-10T02:39:03;100774.97;;;-0.45;81.64
17764;BME280;22245;52.832;13.816;2022-12-10T02:42:29;100781.72;;;-0.37;81.16
17764;BME280;22245;52.832;13.816;2022-12-10T02:45:52;100776.22;;;-0.31;80.21
17764;BME280;22245;52.832;13.816;2022-12-10T02:49:17;100778.66;;;-0.26;80.49
17764;BME280;22245;52.832;13.816;2022-12-10T02:52:39;100771.53;;;-0.23;80.80
17764;BME280;22245;52.832;13.816;2022-12-10T02:56:10;100770.63;;;-0.22;80.94
17764;BME280;22245;52.832;13.816;2022-12-10T02:59:47;100773.25;;;-0.22;80.81
17764;BME280;22245;52.832;13.816;2022-12-10T03:03:34;100774.28;;;-0.26;80.12
17764;BME280;22245;52.832;13.816;2022-12-10T03:07:02;100774.31;;;-0.27;79.49
17764;BME280;22245;52.832;13.816;2022-12-10T03:10:28;100780.06;;;-0.40;80.07
17764;BME280;22245;52.832;13.816;2022-12-10T03:13:57;100780.88;;;-0.39;80.70
17764;BME280;22245;52.832;13.816;2022-12-10T03:17:20;100786.13;;;-0.39;79.78
17764;BME280;22245;52.832;13.816;2022-12-10T03:20:44;100771.13;;;-0.34;79.65
17764;BME280;22245;52.832;13.816;2022-12-10T03:24:09;100772.03;;;-0.35;79.68
17764;BME280;22245;52.832;13.816;2022-12-10T03:27:32;100779.03;;;-0.36;79.69
17764;BME280;22245;52.832;13.816;2022-12-10T03:30:55;100776.34;;;-0.34;80.22
17764;BME280;22245;52.832;13.816;2022-12-10T03:34:17;100787.94;;;-0.41;79.61
17764;BME280;22245;52.832;13.816;2022-12-10T03:37:39;100786.38;;;-0.46;79.95
17764;BME280;22245;52.832;13.816;2022-12-10T03:41:03;100788.94;;;-0.44;80.31
17764;BME280;22245;52.832;13.816;2022-12-10T03:44:30;100794.88;;;-0.40;79.25
17764;BME280;22245;52.832;13.816;2022-12-10T03:47:52;100794.34;;;-0.49;79.96
17764;BME280;22245;52.832;13.816;2022-12-10T03:51:14;100790.75;;;-0.46;79.00
17764;BME280;22245;52.832;13.816;2022-12-10T03:54:36;100788.97;;;-0.46;78.64
17764;BME280;22245;52.832;13.816;2022-12-10T03:58:00;100790.88;;;-0.49;78.46
17764;BME280;22245;52.832;13.816;2022-12-10T04:01:22;100785.56;;;-0.48;78.16
17764;BME280;22245;52.832;13.816;2022-12-10T04:04:44;100786.06;;;-0.60;78.56
17764;BME280;22245;52.832;13.816;2022-12-10T04:08:05;100790.72;;;-0.68;78.82
17764;BME280;22245;52.832;13.816;2022-12-10T04:11:27;100788.81;;;-0.65;79.04
17764;BME280;22245;52.832;13.816;2022-12-10T04:14:50;100788.78;;;-0.63;77.71
17764;BME280;22245;52.832;13.816;2022-12-10T04:18:30;100785.25;;;-0.62;78.13
17764;BME280;22245;52.832;13.816;2022-12-10T04:21:51;100785.38;;;-0.65;78.40
17764;BME280;22245;52.832;13.816;2022-12-10T04:25:30;100774.78;;;-0.62;77.60
17764;BME280;22245;52.832;13.816;2022-12-10T04:29:14;100776.38;;;-0.58;78.00
17764;BME280;22245;52.832;13.816;2022-12-10T04:32:38;100771.94;;;-0.56;77.74
17764;BME280;22245;52.832;13.816;2022-12-10T04:35:59;100771.81;;;-0.53;76.50
17764;BME280;22245;52.832;13.816;2022-12-10T04:39:21;100778.56;;;-0.69;76.88
17764;BME280;22245;52.832;13.816;2022-12-10T04:42:43;100775.69;;;-0.63;77.29
17764;BME280;22245;52.832;13.816;2022-12-10T04:46:04;100782.63;;;-0.62;76.60
17764;BME280;22245;52.832;13.816;2022-12-10T04:49:29;100785.31;;;-0.64;76.84
17764;BME280;22245;52.832;13.816;2022-12-10T04:52:51;100791.56;;;-0.68;76.32
17764;BME280;22245;52.832;13.816;2022-12-10T04:56:13;100781.97;;;-0.67;76.78
17764;BME280;22245;52.832;13.816;2022-12-10T04:59:35;100787.94;;;-0.88;77.03
17764;BME280;22245;52.832;13.816;2022-12-10T05:02:57;100778.28;;;-0.85;76.51
17764;BME280;22245;52.832;13.816;2022-12-10T05:06:20;100784.47;;;-0.88;76.15
17764;BME280;22245;52.832;13.816;2022-12-10T05:09:42;100791.38;;;-0.87;76.52
17764;BME280;22245;52.832;13.816;2022-12-10T05:13:03;100787.59;;;-0.78;76.35
17764;BME280;22245;52.832;13.816;2022-12-10T05:16:28;100798.63;;;-0.70;76.67
17764;BME280;22245;52.832;13.816;2022-12-10T05:19:50;100796.69;;;-0.65;76.34
17764;BME280;22245;52.832;13.816;2022-12-10T05:23:13;100789.50;;;-0.60;75.83
17764;BME280;22245;52.832;13.816;2022-12-10T05:26:50;100793.00;;;-0.59;74.91
17764;BME280;22245;52.832;13.816;2022-12-10T05:30:13;100793.75;;;-0.55;74.89
17764;BME280;22245;52.832;13.816;2022-12-10T05:33:34;100793.53;;;-0.51;74.88
17764;BME280;22245;52.832;13.816;2022-12-10T05:36:56;100791.16;;;-0.57;75.61
17764;BME280;22245;52.832;13.816;2022-12-10T05:40:19;100800.84;;;-0.59;75.61
17764;BME280;22245;52.832;13.816;2022-12-10T05:43:42;100797.44;;;-0.61;74.92
17764;BME280;22245;52.832;13.816;2022-12-10T05:47:04;100800.75;;;-0.57;75.03
17764;BME280;22245;52.832;13.816;2022-12-10T05:50:27;100800.88;;;-0.61;75.73
17764;BME280;22245;52.832;13.816;2022-12-10T05:53:50;100792.34;;;-0.66;75.00
17764;BME280;22245;52.832;13.816;2022-12-10T05:57:14;100797.47;;;-0.63;74.90
17764;BME280;22245;52.832;13.816;2022-12-10T06:00:38;100796.41;;;-0.57;75.62
17764;BME280;22245;52.832;13.816;2022-12-10T06:04:01;100799.81;;;-0.55;75.78
17764;BME280;22245;52.832;13.816;2022-12-10T06:07:23;100801.50;;;-0.54;76.27
17764;BME280;22245;52.832;13.816;2022-12-10T06:10:44;100800.59;;;-0.53;76.21
17764;BME280;22245;52.832;13.816;2022-12-10T06:14:08;100804.91;;;-0.52;75.20
17764;BME280;22245;52.832;13.816;2022-12-10T06:17:30;100811.06;;;-0.53;75.30
17764;BME280;22245;52.832;13.816;2022-12-10T06:20:52;100808.44;;;-0.53;74.92
17764;BME280;22245;52.832;13.816;2022-12-10T06:24:14;100813.69;;;-0.53;74.76
17764;BME280;22245;52.832;13.816;2022-12-10T06:27:36;100808.41;;;-0.51;74.55
17764;BME280;22245;52.832;13.816;2022-12-10T06:31:00;100813.56;;;-0.50;74.13
17764;BME280;22245;52.832;13.816;2022-12-10T06:34:21;100811.81;;;-0.49;74.06
17764;BME280;22245;52.832;13.816;2022-12-10T06:37:43;100810.03;;;-0.49;73.83
17764;BME280;22245;52.832;13.816;2022-12-10T06:41:07;100820.63;;;-0.52;73.50
17764;BME280;22245;52.832;13.816;2022-12-10T06:44:29;100822.72;;;-0.62;74.06
17764;BME280;22245;52.832;13.816;2022-12-10T06:47:52;100829.34;;;-0.51;73.82
17764;BME280;22245;52.832;13.816;2022-12-10T06:51:14;100830.41;;;-0.57;72.87
17764;BME280;22245;52.832;13.816;2022-12-10T06:54:37;100834.88;;;-0.61;73.72
17764;BME280;22245;52.832;13.816;2022-12-10T06:58:00;100842.81;;;-0.62;73.67
17764;BME280;22245;52.832;13.816;2022-12-10T07:01:24;100843.53;;;-0.59;73.22
17764;BME280;22245;52.832;13.816;2022-12-10T07:04:49;100844.16;;;-0.52;73.92
17764;BME280;22245;52.832;13.816;2022-12-10T07:08:10;100842.41;;;-0.51;73.28
17764;BME280;22245;52.832;13.816;2022-12-10T07:11:32;100849.41;;;-0.52;73.31
17764;BME280;22245;52.832;13.816;2022-12-10T07:14:54;100845.94;;;-0.52;73.96
17764;BME280;22245;52.832;13.816;2022-12-10T07:18:17;100846.72;;;-0.50;72.73
17764;BME280;22245;52.832;13.816;2022-12-10T07:21:43;100843.22;;;-0.49;72.52
17764;BME280;22245;52.832;13.816;2022-12-10T07:25:06;100847.44;;;-0.47;73.23
17764;BME280;22245;52.832;13.816;2022-12-10T07:28:28;100854.22;;;-0.41;73.25
17764;BME280;22245;52.832;13.816;2022-12-10T07:31:54;100853.25;;;-0.38;73.72
17764;BME280;22245;52.832;13.816;2022-12-10T07:35:16;100848.00;;;-0.38;73.45
17764;BME280;22245;52.832;13.816;2022-12-10T07:38:40;100853.19;;;-0.37;73.76
17764;BME280;22245;52.832;13.816;2022-12-10T07:42:01;100858.28;;;-0.32;73.22
17764;BME280;22245;52.832;13.816;2022-12-10T07:45:23;100860.03;;;-0.33;72.76
17764;BME280;22245;52.832;13.816;2022-12-10T07:48:46;100871.41;;;-0.34;73.75
17764;BME280;22245;52.832;13.816;2022-12-10T07:52:08;100868.78;;;-0.34;73.32
17764;BME280;22245;52.832;13.816;2022-12-10T07:55:31;100871.34;;;-0.32;73.94
17764;BME280;22245;52.832;13.816;2022-12-10T07:58:53;100880.81;;;-0.28;73.59
17764;BME280;22245;52.832;13.816;2022-12-10T08:02:15;100877.38;;;-0.30;73.70
17764;BME280;22245;52.832;13.816;2022-12-10T08:05:37;100879.94;;;-0.28;73.39
17764;BME280;22245;52.832;13.816;2022-12-10T08:08:59;100876.59;;;-0.32;74.12
17764;BME280;22245;52.832;13.816;2022-12-10T08:12:23;100885.25;;;-0.30;73.91
17764;BME280;22245;52.832;13.816;2022-12-10T08:15:45;100894.81;;;-0.29;73.87
17764;BME280;22245;52.832;13.816;2022-12-10T08:19:07;100892.91;;;-0.25;72.89
17764;BME280;22245;52.832;13.816;2022-12-10T08:22:29;100892.84;;;-0.24;74.07
17764;BME280;22245;52.832;13.816;2022-12-10T08:25:50;100892.84;;;-0.24;73.03
17764;BME280;22245;52.832;13.816;2022-12-10T08:29:14;100895.41;;;-0.22;73.05
17764;BME280;22245;52.832;13.816;2022-12-10T08:32:35;100898.81;;;-0.20;74.06
17764;BME280;22245;52.832;13.816;2022-12-10T08:35:58;100897.84;;;-0.18;72.97
17764;BME280;22245;52.832;13.816;2022-12-10T08:39:22;100903.97;;;-0.17;72.83
17764;BME280;22245;52.832;13.816;2022-12-10T08:42:44;100893.53;;;-0.19;73.62
17764;BME280;22245;52.832;13.816;2022-12-10T08:46:08;100904.25;;;-0.25;73.94
17764;BME280;22245;52.832;13.816;2022-12-10T08:49:30;100900.81;;;-0.27;73.78
17764;BME280;22245;52.832;13.816;2022-12-10T08:52:52;100899.41;;;-0.36;74.44
17764;BME280;22245;52.832;13.816;2022-12-10T08:56:14;100906.28;;;-0.33;74.26
17764;BME280;22245;52.832;13.816;2022-12-10T08:59:37;100910.44;;;-0.27;74.58
17764;BME280;22245;52.832;13.816;2022-12-10T09:03:00;100909.81;;;-0.34;75.27
17764;BME280;22245;52.832;13.816;2022-12-10T09:06:23;100918.47;;;-0.32;74.79
17764;BME280;22245;52.832;13.816;2022-12-10T09:09:46;100919.19;;;-0.28;74.62
17764;BME280;22245;52.832;13.816;2022-12-10T09:13:07;100916.28;;;-0.45;74.77
17764;BME280;22245;52.832;13.816;2022-12-10T09:16:31;100925.00;;;-0.44;75.07
17764;BME280;22245;52.832;13.816;2022-12-10T09:19:54;100929.47;;;-0.48;75.06
17764;BME280;22245;52.832;13.816;2022-12-10T09:23:16;100922.66;;;-0.52;74.80
17764;BME280;22245;52.832;13.816;2022-12-10T09:26:38;100926.81;;;-0.46;76.23
17764;BME280;22245;52.832;13.816;2022-12-10T09:30:00;100923.72;;;-0.32;75.46
17764;BME280;22245;52.832;13.816;2022-12-10T09:33:22;100921.53;;;-0.21;75.31
17764;BME280;22245;52.832;13.816;2022-12-10T09:36:46;100916.19;;;-0.18;74.96
17764;BME280;22245;52.832;13.816;2022-12-10T09:40:13;100918.63;;;-0.13;74.89
17764;BME280;22245;52.832;13.816;2022-12-10T09:43:44;100908.03;;;-0.10;74.70
17764;BME280;22245;52.832;13.816;2022-12-10T09:47:09;100910.59;;;-0.08;74.99
17764;BME280;22245;52.832;13.816;2022-12-10T09:50:35;100910.47;;;-0.05;73.72
17764;BME280;22245;52.832;13.816;2022-12-10T09:54:03;100918.28;;;-0.04;74.89
17764;BME280;22245;52.832;13.816;2022-12-10T09:57:33;100913.66;;;0.03;74.64
17764;BME280;22245;52.832;13.816;2022-12-10T10:00:58;100908.06;;;0.12;74.12
17764;BME280;22245;52.832;13.816;2022-12-10T10:04:20;100908.13;;;0.11;74.88
17764;BME280;22245;52.832;13.816;2022-12-10T10:07:46;100903.78;;;0.10;74.81
17764;BME280;22245;52.832;13.816;2022-12-10T10:11:16;100902.97;;;0.09;75.03
17764;BME280;22245;52.832;13.816;2022-12-10T10:14:38;100902.84;;;0.12;74.37
17764;BME280;22245;52.832;13.816;2022-12-10T10:18:05;100906.38;;;0.11;74.31
17764;BME280;22245;52.832;13.816;2022-12-10T10:21:34;100905.56;;;0.09;74.40
17764;BME280;22245;52.832;13.816;2022-12-10T10:24:56;100908.25;;;0.08;74.30
17764;BME280;22245;52.832;13.816;2022-12-10T10:28:23;100913.44;;;0.09;74.59
17764;BME280;22245;52.832;13.816;2022-12-10T10:31:45;100910.81;;;0.09;75.17
17764;BME280;22245;52.832;13.816;2022-12-10T10:35:26;100916.06;;;0.09;74.75
17764;BME280;22245;52.832;13.816;2022-12-10T10:38:48;100911.59;;;0.11;74.88
17764;BME280;22245;52.832;13.816;2022-12-10T10:42:10;100909.91;;;0.10;75.69
17764;BME280;22245;52.832;13.816;2022-12-10T10:45:37;100906.16;;;0.16;75.45
17764;BME280;22245;52.832;13.816;2022-12-10T10:49:14;100901.28;;;0.07;75.40
17764;BME280;22245;52.832;13.816;2022-12-10T10:52:38;100905.63;;;0.08;75.72
17764;BME280;22245;52.832;13.816;2022-12-10T10:56:05;100896.00;;;0.08;74.69
17764;BME280;22245;52.832;13.816;2022-12-10T10:59:30;100895.88;;;0.11;74.81
17764;BME280;22245;52.832;13.816;2022-12-10T11:02:54;100894.84;;;0.16;74.99
17764;BME280;22245;52.832;13.816;2022-12-10T11:06:16;100890.34;;;0.19;75.42
17764;BME280;22245;52.832;13.816;2022-12-10T11:09:39;100893.16;;;0.14;75.09
17764;BME280;22245;52.832;13.816;2022-12-10T11:13:04;100891.16;;;0.21;75.00
17764;BME280;22245;52.832;13.816;2022-12-10T11:16:26;100889.53;;;0.17;75.79
17764;BME280;22245;52.832;13.816;2022-12-10T11:19:57;100884.38;;;0.16;75.78
17764;BME280;22245;52.832;13.816;2022-12-10T11:23:19;100881.63;;;0.19;75.64
17764;BME280;22245;52.832;13.816;2022-12-10T11:26:56;100886.81;;;0.20;75.60
17764;BME280;22245;52.832;13.816;2022-12-10T11:30:20;100880.34;;;0.29;74.97
17764;BME280;22245;52.832;13.816;2022-12-10T11:33:51;100872.59;;;0.26;74.68
17764;BME280;22245;52.832;13.816;2022-12-10T11:37:22;100884.91;;;0.24;75.02
17764;BME280;22245;52.832;13.816;2022-12-10T11:41:00;100873.53;;;0.25;73.91
17764;BME280;22245;52.832;13.816;2022-12-10T11:44:26;100876.53;;;0.16;74.14
17764;BME280;22245;52.832;13.816;2022-12-10T11:48:04;100874.31;;;0.27;74.99
17764;BME280;22245;52.832;13.816;2022-12-10T11:51:35;100875.06;;;0.31;74.52
17764;BME280;22245;52.832;13.816;2022-12-10T11:55:10;100870.66;;;0.31;74.15
17764;BME280;22245;52.832;13.816;2022-12-10T11:58:48;100869.63;;;0.35;73.63
17764;BME280;22245;52.832;13.816;2022-12-10T12:02:28;100870.59;;;0.33;74.20
17764;BME280;22245;52.832;13.816;2022-12-10T12:06:13;100871.31;;;0.36;73.85
17764;BME280;22245;52.832;13.816;2022-12-10T12:09:51;100879.09;;;0.39;73.84
17764;BME280;22245;52.832;13.816;2022-12-10T12:13:21;100877.38;;;0.38;73.74
17764;BME280;22245;52.832;13.816;2022-12-10T12:16:48;100877.25;;;0.41;73.94
17764;BME280;22245;52.832;13.816;2022-12-10T12:20:17;100877.16;;;0.43;73.15
17764;BME280;22245;52.832;13.816;2022-12-10T12:23:46;100877.28;;;0.40;72.53
17764;BME280;22245;52.832;13.816;2022-12-10T12:27:17;100878.09;;;0.42;73.15
17764;BME280;22245;52.832;13.816;2022-12-10T12:30:47;100874.28;;;0.28;73.38
17764;BME280;22245;52.832;13.816;2022-12-10T12:34:17;100882.72;;;0.35;72.98
17764;BME280;22245;52.832;13.816;2022-12-10T12:37:44;100886.13;;;0.37;72.77
17764;BME280;22245;52.832;13.816;2022-12-10T12:41:13;100891.16;;;0.43;72.62
17764;BME280;22245;52.832;13.816;2022-12-10T12:44:52;100880.28;;;0.31;72.51
17764;BME280;22245;52.832;13.816;2022-12-10T12:48:23;100889.00;;;0.31;73.08
17764;BME280;22245;52.832;13.816;2022-12-10T12:51:52;100885.34;;;0.35;73.26
17764;BME280;22245;52.832;13.816;2022-12-10T12:55:20;100878.84;;;0.46;72.37
17764;BME280;22245;52.832;13.816;2022-12-10T12:58:55;100875.41;;;0.43;72.67
17764;BME280;22245;52.832;13.816;2022-12-10T13:06:20;100887.91;;;0.37;72.66
17764;BME280;22245;52.832;13.816;2022-12-10T13:09:44;100882.63;;;0.38;72.49
17764;BME280;22245;52.832;13.816;2022-12-10T13:13:19;100892.47;;;0.32;73.48
17764;BME280;22245;52.832;13.816;2022-12-10T13:16:50;100892.72;;;0.25;73.64
17764;BME280;22245;52.832;13.816;2022-12-10T13:20:34;100896.72;;;0.34;72.61
17764;BME280;22245;52.832;13.816;2022-12-10T13:24:12;100896.97;;;0.28;73.42
17764;BME280;22245;52.832;13.816;2022-12-10T13:27:34;100901.44;;;0.26;73.70
17764;BME280;22245;52.832;13.816;2022-12-10T13:31:13;100904.78;;;0.30;73.40
17764;BME280;22245;52.832;13.816;2022-12-10T13:34:38;100909.25;;;0.27;73.63
17764;BME280;22245;52.832;13.816;2022-12-10T13:38:05;100913.19;;;0.38;73.35
17764;BME280;22245;52.832;13.816;2022-12-10T13:41:41;100919.72;;;0.27;73.55
17764;BME280;22245;52.832;13.816;2022-12-10T13:45:40;100921.31;;;0.32;73.57
17764;BME280;22245;52.832;13.816;2022-12-10T13:49:03;100930.78;;;0.34;73.64
17764;BME280;22245;52.832;13.816;2022-12-10T13:52:31;100925.41;;;0.37;73.70
17764;BME280;22245;52.832;13.816;2022-12-10T13:56:02;100924.41;;;0.41;72.82
17764;BME280;22245;52.832;13.816;2022-12-10T13:59:36;100920.00;;;0.42;73.99
17764;BME280;22245;52.832;13.816;2022-12-10T14:03:33;100926.00;;;0.46;73.08
17764;BME280;22245;52.832;13.816;2022-12-10T14:07:03;100930.25;;;0.48;73.04
17764;BME280;22245;52.832;13.816;2022-12-10T14:10:30;100925.25;;;0.42;72.91
17764;BME280;22245;52.832;13.816;2022-12-10T14:13:56;100931.81;;;0.30;73.26
17764;BME280;22245;52.832;13.816;2022-12-10T14:17:24;100937.19;;;0.27;73.95
17764;BME280;22245;52.832;13.816;2022-12-10T14:20:53;100924.63;;;0.35;73.97
17764;BME280;22245;52.832;13.816;2022-12-10T14:24:27;100926.47;;;0.33;73.10
17764;BME280;22245;52.832;13.816;2022-12-10T14:27:50;100927.22;;;0.37;73.81
17764;BME280;22245;52.832;13.816;2022-12-10T14:31:15;100920.09;;;0.40;73.71
17764;BME280;22245;52.832;13.816;2022-12-10T14:34:40;100925.13;;;0.45;73.38
17764;BME280;22245;52.832;13.816;2022-12-10T14:38:02;100922.63;;;0.42;73.63
17764;BME280;22245;52.832;13.816;2022-12-10T14:41:24;100918.19;;;0.44;74.17
17764;BME280;22245;52.832;13.816;2022-12-10T14:45:02;100916.44;;;0.45;72.90
17764;BME280;22245;52.832;13.816;2022-12-10T14:48:25;100925.53;;;0.34;74.05
17764;BME280;22245;52.832;13.816;2022-12-10T14:51:49;100934.16;;;0.38;73.86
17764;BME280;22245;52.832;13.816;2022-12-10T14:55:13;100931.38;;;0.42;74.07
17764;BME280;22245;52.832;13.816;2022-12-10T14:58:38;100939.28;;;0.41;73.87
17764;BME280;22245;52.832;13.816;2022-12-10T15:02:11;100942.97;;;0.35;74.32
17764;BME280;22245;52.832;13.816;2022-12-10T15:05:36;100936.81;;;0.36;73.62
17764;BME280;22245;52.832;13.816;2022-12-10T15:09:00;100944.00;;;0.31;74.42
17764;BME280;22245;52.832;13.816;2022-12-10T15:12:29;100950.69;;;0.16;74.71
17764;BME280;22245;52.832;13.816;2022-12-10T15:15:53;100942.03;;;0.14;74.12
17764;BME280;22245;52.832;13.816;2022-12-10T15:19:20;100947.00;;;0.22;74.89
17764;BME280;22245;52.832;13.816;2022-12-10T15:22:43;100945.41;;;0.18;74.67
17764;BME280;22245;52.832;13.816;2022-12-10T15:26:14;100952.00;;;0.28;74.62
17764;BME280;22245;52.832;13.816;2022-12-10T15:29:38;100945.53;;;0.37;73.72
17764;BME280;22245;52.832;13.816;2022-12-10T15:33:00;100943.72;;;0.39;74.10
17764;BME280;22245;52.832;13.816;2022-12-10T15:36:30;100948.91;;;0.40;73.55
17764;BME280;22245;52.832;13.816;2022-12-10T15:39:54;100953.41;;;0.37;74.28
17764;BME280;22245;52.832;13.816;2022-12-10T15:43:25;100953.41;;;0.37;73.29
17764;BME280;22245;52.832;13.816;2022-12-10T15:46:48;100949.13;;;0.34;73.26
17764;BME280;22245;52.832;13.816;2022-12-10T15:50:10;100960.75;;;0.27;73.95
17764;BME280;22245;52.832;13.816;2022-12-10T15:53:36;100961.44;;;0.32;74.58
17764;BME280;22245;52.832;13.816;2022-12-10T15:56:59;100959.19;;;0.23;73.62
17764;BME280;22245;52.832;13.816;2022-12-10T16:00:25;100962.66;;;0.23;74.33
17764;BME280;22245;52.832;13.816;2022-12-10T16:03:47;100954.72;;;0.25;74.39
17764;BME280;22245;52.832;13.816;2022-12-10T16:07:09;100959.00;;;0.27;73.88
17764;BME280;22245;52.832;13.816;2022-12-10T16:10:30;100955.66;;;0.24;73.49
17764;BME280;22245;52.832;13.816;2022-12-10T16:13:53;100959.19;;;0.23;74.31
17764;BME280;22245;52.832;13.816;2022-12-10T16:17:19;100954.72;;;0.25;74.18
17764;BME280;22245;52.832;13.816;2022-12-10T16:20:41;100957.59;;;0.19;74.17
17764;BME280;22245;52.832;13.816;2022-12-10T16:24:02;100956.56;;;0.23;73.85
17764;BME280;22245;52.832;13.816;2022-12-10T16:27:25;100955.34;;;0.09;73.81
17764;BME280;22245;52.832;13.816;2022-12-10T16:30:48;100962.28;;;0.10;74.33
17764;BME280;22245;52.832;13.816;2022-12-10T16:34:14;100957.03;;;0.10;73.72
17764;BME280;22245;52.832;13.816;2022-12-10T16:37:36;100965.72;;;0.11;73.68
17764;BME280;22245;52.832;13.816;2022-12-10T16:40:59;100961.88;;;0.21;73.39
17764;BME280;22245;52.832;13.816;2022-12-10T16:44:21;100963.63;;;0.21;73.36
17764;BME280;22245;52.832;13.816;2022-12-10T16:47:43;100968.69;;;0.25;73.73
17764;BME280;22245;52.832;13.816;2022-12-10T16:51:13;100965.22;;;0.25;73.31
17764;BME280;22245;52.832;13.816;2022-12-10T16:54:36;100969.63;;;0.24;73.41
17764;BME280;22245;52.832;13.816;2022-12-10T16:57:58;100977.41;;;0.26;73.45
17764;BME280;22245;52.832;13.816;2022-12-10T17:01:21;100980.75;;;0.30;72.43
17764;BME280;22245;52.832;13.816;2022-12-10T17:04:44;100980.13;;;0.23;72.51
17764;BME280;22245;52.832;13.816;2022-12-10T17:08:07;100983.56;;;0.25;72.32
17764;BME280;22245;52.832;13.816;2022-12-10T17:11:35;100975.56;;;0.28;72.71
17764;BME280;22245;52.832;13.816;2022-12-10T17:15:11;100970.28;;;0.30;72.86
17764;BME280;22245;52.832;13.816;2022-12-10T17:18:36;100974.63;;;0.31;72.38
17764;BME280;22245;52.832;13.816;2022-12-10T17:21:59;100971.06;;;0.32;72.16
17764;BME280;22245;52.832;13.816;2022-12-10T17:25:22;100974.50;;;0.34;72.29
17764;BME280;22245;52.832;13.816;2022-12-10T17:28:44;100974.63;;;0.31;72.19
17764;BME280;22245;52.832;13.816;2022-12-10T17:32:12;100985.00;;;0.32;71.94
17764;BME280;22245;52.832;13.816;2022-12-10T17:35:35;100989.34;;;0.33;71.57
17764;BME280;22245;52.832;13.816;2022-12-10T17:38:57;100973.56;;;0.35;71.28
17764;BME280;22245;52.832;13.816;2022-12-10T17:42:21;100981.59;;;0.30;71.07
17764;BME280;22245;52.832;13.816;2022-12-10T17:45:43;100991.66;;;0.19;70.75
17764;BME280;22245;52.832;13.816;2022-12-10T17:49:09;100991.88;;;0.12;71.46
17764;BME280;22245;52.832;13.816;2022-12-10T17:52:31;100991.25;;;0.06;70.85